sensor_id;sensor_type;location;lat;lon;timestamp;temperature;humidity
41294;DHT22;27037;52.010;4.446;2023-09-30T00:01:11;14.70;99.90
41294;DHT22;27037;52.010;4.446;2023-09-30T00:03:36;14.70;99.90
41294;DHT22;27037;52.010;4.446;2023-09-30T00:06:03;14.70;99.90
41294;DHT22;27037;52.010;4.446;2023-09-30T00:08:29;14.70;99.90
41294;DHT22;27037;52.010;4.446;2023-09-30T00:10:55;14.70;99.90
41294;DHT22;27037;52.010;4.446;2023-09-30T00:13:20;14.70;99.90
41294;DHT22;27037;52.010;4.446;2023-09-30T00:15:47;14.70;99.90
41294;DHT22;27037;52.010;4.446;2023-09-30T00:18:12;14.70;99.90
41294;DHT22;27037;52.010;4.446;2023-09-30T00:20:39;14.70;99.90
41294;DHT22;27037;52.010;4.446;2023-09-30T00:23:04;14.70;99.90
41294;DHT22;27037;52.010;4.446;2023-09-30T00:25:32;14.70;99.90
41294;DHT22;27037;52.010;4.446;2023-09-30T00:27:58;14.70;99.90
41294;DHT22;27037;52.010;4.446;2023-09-30T00:30:23;14.70;99.90
41294;DHT22;27037;52.010;4.446;2023-09-30T00:32:49;14.70;99.90
41294;DHT22;27037;52.010;4.446;2023-09-30T00:35:15;14.70;99.90
41294;DHT22;27037;52.010;4.446;2023-09-30T00:37:41;14.70;99.90
41294;DHT22;27037;52.010;4.446;2023-09-30T00:40:07;14.70;99.90
41294;DHT22;27037;52.010;4.446;2023-09-30T00:42:42;14.70;99.90
41294;DHT22;27037;52.010;4.446;2023-09-30T00:45:08;14.60;99.90
41294;DHT22;27037;52.010;4.446;2023-09-30T00:47:36;14.60;99.90
41294;DHT22;27037;52.010;4.446;2023-09-30T00:50:02;14.60;99.90
41294;DHT22;27037;52.010;4.446;2023-09-30T00:52:30;14.60;99.90
41294;DHT22;27037;52.010;4.446;2023-09-30T00:54:56;14.60;99.90
41294;DHT22;27037;52.010;4.446;2023-09-30T00:57:23;14.60;99.90
41294;DHT22;27037;52.010;4.446;2023-09-30T00:59:50;14.50;99.90
41294;DHT22;27037;52.010;4.446;2023-09-30T01:02:17;14.50;99.90
41294;DHT22;27037;52.010;4.446;2023-09-30T01:04:43;14.50;99.90
41294;DHT22;27037;52.010;4.446;2023-09-30T01:07:09;14.40;99.90
41294;DHT22;27037;52.010;4.446;2023-09-30T01:09:35;14.40;99.90
41294;DHT22;27037;52.010;4.446;2023-09-30T01:12:02;14.40;99.90
41294;DHT22;27037;52.010;4.446;2023-09-30T01:14:31;14.30;99.90
41294;DHT22;27037;52.010;4.446;2023-09-30T01:16:57;14.30;99.90
41294;DHT22;27037;52.010;4.446;2023-09-30T01:19:23;14.30;99.90
41294;DHT22;27037;52.010;4.446;2023-09-30T01:21:54;14.30;99.90
41294;DHT22;27037;52.010;4.446;2023-09-30T01:24:24;14.20;99.90
41294;DHT22;27037;52.010;4.446;2023-09-30T01:26:51;14.30;99.90
41294;DHT22;27037;52.010;4.446;2023-09-30T01:29:16;14.20;99.90
41294;DHT22;27037;52.010;4.446;2023-09-30T01:31:42;14.20;99.90
41294;DHT22;27037;52.010;4.446;2023-09-30T01:34:08;14.10;99.90
41294;DHT22;27037;52.010;4.446;2023-09-30T01:36:36;14.10;99.90
41294;DHT22;27037;52.010;4.446;2023-09-30T01:39:01;14.10;99.90
41294;DHT22;27037;52.010;4.446;2023-09-30T01:41:28;14.10;99.90
41294;DHT22;27037;52.010;4.446;2023-09-30T01:43:54;14.10;99.90
41294;DHT22;27037;52.010;4.446;2023-09-30T01:46:19;14.10;99.90
41294;DHT22;27037;52.010;4.446;2023-09-30T01:48:45;14.20;99.90
41294;DHT22;27037;52.010;4.446;2023-09-30T01:51:10;14.20;99.90
41294;DHT22;27037;52.010;4.446;2023-09-30T01:53:36;14.20;99.90
41294;DHT22;27037;52.010;4.446;2023-09-30T01:56:02;14.20;99.90
41294;DHT22;27037;52.010;4.446;2023-09-30T01:58:28;14.30;99.90
41294;DHT22;27037;52.010;4.446;2023-09-30T02:00:53;14.30;99.90
41294;DHT22;27037;52.010;4.446;2023-09-30T02:03:19;14.30;99.90
41294;DHT22;27037;52.010;4.446;2023-09-30T02:05:46;14.30;99.90
41294;DHT22;27037;52.010;4.446;2023-09-30T02:08:11;14.30;99.90
41294;DHT22;27037;52.010;4.446;2023-09-30T02:10:39;14.30;99.90
41294;DHT22;27037;52.010;4.446;2023-09-30T02:13:04;14.30;99.90
41294;DHT22;27037;52.010;4.446;2023-09-30T02:15:31;14.40;99.90
41294;DHT22;27037;52.010;4.446;2023-09-30T02:17:57;14.40;99.90
41294;DHT22;27037;52.010;4.446;2023-09-30T02:20:23;14.40;99.90
41294;DHT22;27037;52.010;4.446;2023-09-30T02:22:51;14.40;99.90
41294;DHT22;27037;52.010;4.446;2023-09-30T02:25:18;14.40;99.90
41294;DHT22;27037;52.010;4.446;2023-09-30T02:27:44;14.40;99.90
41294;DHT22;27037;52.010;4.446;2023-09-30T02:30:11;14.40;99.90
41294;DHT22;27037;52.010;4.446;2023-09-30T02:32:41;14.40;99.90
41294;DHT22;27037;52.010;4.446;2023-09-30T02:35:08;14.40;99.90
41294;DHT22;27037;52.010;4.446;2023-09-30T02:37:36;14.50;99.90
41294;DHT22;27037;52.010;4.446;2023-09-30T02:40:03;14.50;99.90
41294;DHT22;27037;52.010;4.446;2023-09-30T02:42:35;14.40;99.90
41294;DHT22;27037;52.010;4.446;2023-09-30T02:45:11;14.50;99.90
41294;DHT22;27037;52.010;4.446;2023-09-30T02:47:38;14.50;99.90
41294;DHT22;27037;52.010;4.446;2023-09-30T02:50:06;14.40;99.90
41294;DHT22;27037;52.010;4.446;2023-09-30T02:52:34;14.40;99.90
41294;DHT22;27037;52.010;4.446;2023-09-30T02:54:59;14.40;99.90
41294;DHT22;27037;52.010;4.446;2023-09-30T02:57:26;14.40;99.90
41294;DHT22;27037;52.010;4.446;2023-09-30T02:59:53;14.50;99.90
41294;DHT22;27037;52.010;4.446;2023-09-30T03:02:20;14.40;99.90
41294;DHT22;27037;52.010;4.446;2023-09-30T03:04:47;14.50;99.90
41294;DHT22;27037;52.010;4.446;2023-09-30T03:07:13;14.50;99.90
41294;DHT22;27037;52.010;4.446;2023-09-30T03:09:39;14.50;99.90
41294;DHT22;27037;52.010;4.446;2023-09-30T03:12:05;14.50;99.90
41294;DHT22;27037;52.010;4.446;2023-09-30T03:14:31;14.50;99.90
41294;DHT22;27037;52.010;4.446;2023-09-30T03:17:00;14.50;99.90
41294;DHT22;27037;52.010;4.446;2023-09-30T03:19:25;14.50;99.90
41294;DHT22;27037;52.010;4.446;2023-09-30T03:21:51;14.50;99.90
41294;DHT22;27037;52.010;4.446;2023-09-30T03:24:17;14.50;99.90
41294;DHT22;27037;52.010;4.446;2023-09-30T03:26:42;14.50;99.90
41294;DHT22;27037;52.010;4.446;2023-09-30T03:29:09;14.60;99.90
41294;DHT22;27037;52.010;4.446;2023-09-30T03:31:35;14.60;99.90
41294;DHT22;27037;52.010;4.446;2023-09-30T03:34:05;14.60;99.90
41294;DHT22;27037;52.010;4.446;2023-09-30T03:36:31;14.60;99.90
41294;DHT22;27037;52.010;4.446;2023-09-30T03:38:57;14.60;99.90
41294;DHT22;27037;52.010;4.446;2023-09-30T03:41:25;14.60;99.90
41294;DHT22;27037;52.010;4.446;2023-09-30T03:43:51;14.60;99.90
41294;DHT22;27037;52.010;4.446;2023-09-30T03:46:17;14.60;99.90
41294;DHT22;27037;52.010;4.446;2023-09-30T03:48:43;14.60;99.90
41294;DHT22;27037;52.010;4.446;2023-09-30T03:51:13;14.60;99.90
41294;DHT22;27037;52.010;4.446;2023-09-30T03:53:42;14.60;99.90
41294;DHT22;27037;52.010;4.446;2023-09-30T03:56:08;14.60;99.90
41294;DHT22;27037;52.010;4.446;2023-09-30T03:58:33;14.60;99.90
41294;DHT22;27037;52.010;4.446;2023-09-30T04:01:00;14.60;99.90
41294;DHT22;27037;52.010;4.446;2023-09-30T04:03:29;14.60;99.90
41294;DHT22;27037;52.010;4.446;2023-09-30T04:05:55;14.60;99.90
41294;DHT22;27037;52.010;4.446;2023-09-30T04:08:21;14.60;99.90
41294;DHT22;27037;52.010;4.446;2023-09-30T04:10:47;14.60;99.90
41294;DHT22;27037;52.010;4.446;2023-09-30T04:13:14;14.60;99.90
41294;DHT22;27037;52.010;4.446;2023-09-30T04:15:40;14.60;99.90
41294;DHT22;27037;52.010;4.446;2023-09-30T04:18:05;14.60;99.90
41294;DHT22;27037;52.010;4.446;2023-09-30T04:20:31;14.60;99.90
41294;DHT22;27037;52.010;4.446;2023-09-30T04:22:57;14.60;99.90
41294;DHT22;27037;52.010;4.446;2023-09-30T04:25:23;14.60;99.90
41294;DHT22;27037;52.010;4.446;2023-09-30T04:27:52;14.60;99.90
41294;DHT22;27037;52.010;4.446;2023-09-30T04:30:18;14.60;99.90
41294;DHT22;27037;52.010;4.446;2023-09-30T04:32:44;14.60;99.90
41294;DHT22;27037;52.010;4.446;2023-09-30T04:35:10;14.50;99.90
41294;DHT22;27037;52.010;4.446;2023-09-30T04:37:36;14.50;99.90
41294;DHT22;27037;52.010;4.446;2023-09-30T04:40:04;14.50;99.90
41294;DHT22;27037;52.010;4.446;2023-09-30T04:42:33;14.50;99.90
41294;DHT22;27037;52.010;4.446;2023-09-30T04:45:02;14.50;99.90
41294;DHT22;27037;52.010;4.446;2023-09-30T04:47:28;14.50;99.90
41294;DHT22;27037;52.010;4.446;2023-09-30T04:49:54;14.50;99.90
41294;DHT22;27037;52.010;4.446;2023-09-30T04:52:19;14.50;99.90
41294;DHT22;27037;52.010;4.446;2023-09-30T04:54:46;14.50;99.90
41294;DHT22;27037;52.010;4.446;2023-09-30T04:57:11;14.50;99.90
41294;DHT22;27037;52.010;4.446;2023-09-30T04:59:37;14.50;99.90
41294;DHT22;27037;52.010;4.446;2023-09-30T05:02:02;14.50;99.90
41294;DHT22;27037;52.010;4.446;2023-09-30T05:04:29;14.40;99.90
41294;DHT22;27037;52.010;4.446;2023-09-30T05:06:55;14.50;99.90
41294;DHT22;27037;52.010;4.446;2023-09-30T05:09:20;14.40;99.90
41294;DHT22;27037;52.010;4.446;2023-09-30T05:11:46;14.40;99.90
41294;DHT22;27037;52.010;4.446;2023-09-30T05:14:11;14.40;99.90
41294;DHT22;27037;52.010;4.446;2023-09-30T05:16:38;14.40;99.90
41294;DHT22;27037;52.010;4.446;2023-09-30T05:19:04;14.40;99.90
41294;DHT22;27037;52.010;4.446;2023-09-30T05:21:30;14.40;99.90
41294;DHT22;27037;52.010;4.446;2023-09-30T05:23:55;14.40;99.90
41294;DHT22;27037;52.010;4.446;2023-09-30T05:26:22;14.40;99.90
41294;DHT22;27037;52.010;4.446;2023-09-30T05:28:47;14.30;99.90
41294;DHT22;27037;52.010;4.446;2023-09-30T05:31:13;14.40;99.90
41294;DHT22;27037;52.010;4.446;2023-09-30T05:33:38;14.30;99.90
41294;DHT22;27037;52.010;4.446;2023-09-30T05:36:04;14.30;99.90
41294;DHT22;27037;52.010;4.446;2023-09-30T05:38:30;14.30;99.90
41294;DHT22;27037;52.010;4.446;2023-09-30T05:40:57;14.30;99.90
41294;DHT22;27037;52.010;4.446;2023-09-30T05:43:24;14.30;99.90
41294;DHT22;27037;52.010;4.446;2023-09-30T05:45:50;14.20;99.90
41294;DHT22;27037;52.010;4.446;2023-09-30T05:48:20;14.20;99.90
41294;DHT22;27037;52.010;4.446;2023-09-30T05:50:46;14.20;99.90
41294;DHT22;27037;52.010;4.446;2023-09-30T05:53:12;14.20;99.90
41294;DHT22;27037;52.010;4.446;2023-09-30T05:55:39;14.20;99.90
41294;DHT22;27037;52.010;4.446;2023-09-30T05:58:07;14.20;99.90
41294;DHT22;27037;52.010;4.446;2023-09-30T06:00:33;14.20;99.90
41294;DHT22;27037;52.010;4.446;2023-09-30T06:03:01;14.20;99.90
41294;DHT22;27037;52.010;4.446;2023-09-30T06:05:27;14.20;99.90
41294;DHT22;27037;52.010;4.446;2023-09-30T06:07:55;14.20;99.90
41294;DHT22;27037;52.010;4.446;2023-09-30T06:10:21;14.20;99.90
41294;DHT22;27037;52.010;4.446;2023-09-30T06:12:48;14.20;99.90
41294;DHT22;27037;52.010;4.446;2023-09-30T06:15:15;14.20;99.90
41294;DHT22;27037;52.010;4.446;2023-09-30T06:17:41;14.20;99.90
41294;DHT22;27037;52.010;4.446;2023-09-30T06:20:07;14.30;99.90
41294;DHT22;27037;52.010;4.446;2023-09-30T06:22:34;14.30;99.90
41294;DHT22;27037;52.010;4.446;2023-09-30T06:25:00;14.30;99.90
41294;DHT22;27037;52.010;4.446;2023-09-30T06:27:27;14.30;99.90
41294;DHT22;27037;52.010;4.446;2023-09-30T06:29:53;14.30;99.90
41294;DHT22;27037;52.010;4.446;2023-09-30T06:32:18;14.30;99.90
41294;DHT22;27037;52.010;4.446;2023-09-30T06:34:44;14.30;99.90
41294;DHT22;27037;52.010;4.446;2023-09-30T06:37:09;14.30;99.90
41294;DHT22;27037;52.010;4.446;2023-09-30T06:39:35;14.40;99.90
41294;DHT22;27037;52.010;4.446;2023-09-30T06:42:01;14.30;99.90
41294;DHT22;27037;52.010;4.446;2023-09-30T06:44:27;14.30;99.90
41294;DHT22;27037;52.010;4.446;2023-09-30T06:46:53;14.40;99.90
41294;DHT22;27037;52.010;4.446;2023-09-30T06:49:20;14.40;99.90
41294;DHT22;27037;52.010;4.446;2023-09-30T06:51:46;14.40;99.90
41294;DHT22;27037;52.010;4.446;2023-09-30T06:54:13;14.40;99.90
41294;DHT22;27037;52.010;4.446;2023-09-30T06:56:38;14.40;99.90
41294;DHT22;27037;52.010;4.446;2023-09-30T06:59:04;14.40;99.90
41294;DHT22;27037;52.010;4.446;2023-09-30T07:01:29;14.40;99.90
41294;DHT22;27037;52.010;4.446;2023-09-30T07:03:55;14.40;99.90
41294;DHT22;27037;52.010;4.446;2023-09-30T07:06:27;14.50;99.90
41294;DHT22;27037;52.010;4.446;2023-09-30T07:08:53;14.50;99.90
41294;DHT22;27037;52.010;4.446;2023-09-30T07:11:28;14.60;99.90
41294;DHT22;27037;52.010;4.446;2023-09-30T07:13:55;14.60;99.90
41294;DHT22;27037;52.010;4.446;2023-09-30T07:16:21;14.70;99.90
41294;DHT22;27037;52.010;4.446;2023-09-30T07:18:46;14.70;99.90
41294;DHT22;27037;52.010;4.446;2023-09-30T07:21:12;14.80;99.90
41294;DHT22;27037;52.010;4.446;2023-09-30T07:23:38;14.80;99.90
41294;DHT22;27037;52.010;4.446;2023-09-30T07:26:04;14.90;99.90
41294;DHT22;27037;52.010;4.446;2023-09-30T07:28:29;14.90;99.90
41294;DHT22;27037;52.010;4.446;2023-09-30T07:30:55;14.90;99.90
41294;DHT22;27037;52.010;4.446;2023-09-30T07:33:21;14.90;99.90
41294;DHT22;27037;52.010;4.446;2023-09-30T07:35:47;15.00;99.90
41294;DHT22;27037;52.010;4.446;2023-09-30T07:38:12;15.00;99.90
41294;DHT22;27037;52.010;4.446;2023-09-30T07:40:38;15.10;99.90
41294;DHT22;27037;52.010;4.446;2023-09-30T07:43:04;15.10;99.90
41294;DHT22;27037;52.010;4.446;2023-09-30T07:45:29;15.20;99.90
41294;DHT22;27037;52.010;4.446;2023-09-30T07:47:55;15.30;99.90
41294;DHT22;27037;52.010;4.446;2023-09-30T07:50:21;15.30;99.90
41294;DHT22;27037;52.010;4.446;2023-09-30T07:52:46;15.40;99.90
41294;DHT22;27037;52.010;4.446;2023-09-30T07:55:12;15.40;99.90
41294;DHT22;27037;52.010;4.446;2023-09-30T07:57:39;15.50;99.90
41294;DHT22;27037;52.010;4.446;2023-09-30T08:00:06;15.60;99.90
41294;DHT22;27037;52.010;4.446;2023-09-30T08:02:35;15.60;99.90
41294;DHT22;27037;52.010;4.446;2023-09-30T08:05:02;15.70;99.90
41294;DHT22;27037;52.010;4.446;2023-09-30T08:07:29;15.80;99.90
41294;DHT22;27037;52.010;4.446;2023-09-30T08:09:54;15.90;99.90
41294;DHT22;27037;52.010;4.446;2023-09-30T08:12:20;16.00;99.90
41294;DHT22;27037;52.010;4.446;2023-09-30T08:14:46;16.10;99.90
41294;DHT22;27037;52.010;4.446;2023-09-30T08:17:12;16.20;99.90
41294;DHT22;27037;52.010;4.446;2023-09-30T08:19:37;16.30;99.90
41294;DHT22;27037;52.010;4.446;2023-09-30T08:22:03;16.40;99.90
41294;DHT22;27037;52.010;4.446;2023-09-30T08:24:29;16.50;99.90
41294;DHT22;27037;52.010;4.446;2023-09-30T08:26:55;16.50;99.90
41294;DHT22;27037;52.010;4.446;2023-09-30T08:29:22;16.60;99.90
41294;DHT22;27037;52.010;4.446;2023-09-30T08:31:47;16.60;99.90
41294;DHT22;27037;52.010;4.446;2023-09-30T08:34:14;16.70;99.90
41294;DHT22;27037;52.010;4.446;2023-09-30T08:36:45;16.80;99.90
41294;DHT22;27037;52.010;4.446;2023-09-30T08:39:10;16.80;99.90
41294;DHT22;27037;52.010;4.446;2023-09-30T08:41:36;16.90;99.90
41294;DHT22;27037;52.010;4.446;2023-09-30T08:44:03;17.00;99.90
41294;DHT22;27037;52.010;4.446;2023-09-30T08:46:34;17.10;99.90
41294;DHT22;27037;52.010;4.446;2023-09-30T08:49:04;17.20;99.90
41294;DHT22;27037;52.010;4.446;2023-09-30T08:51:30;17.30;99.90
41294;DHT22;27037;52.010;4.446;2023-09-30T08:53:57;17.50;99.90
41294;DHT22;27037;52.010;4.446;2023-09-30T08:56:28;17.60;99.90
41294;DHT22;27037;52.010;4.446;2023-09-30T08:58:57;17.70;99.90
41294;DHT22;27037;52.010;4.446;2023-09-30T09:01:24;17.80;99.90
41294;DHT22;27037;52.010;4.446;2023-09-30T09:03:50;17.90;99.90
41294;DHT22;27037;52.010;4.446;2023-09-30T09:06:20;18.00;99.90
41294;DHT22;27037;52.010;4.446;2023-09-30T09:08:46;18.10;99.90
41294;DHT22;27037;52.010;4.446;2023-09-30T09:11:12;18.20;99.90
41294;DHT22;27037;52.010;4.446;2023-09-30T09:13:50;18.30;99.90
41294;DHT22;27037;52.010;4.446;2023-09-30T09:16:19;18.50;99.90
41294;DHT22;27037;52.010;4.446;2023-09-30T09:18:45;18.60;99.90
41294;DHT22;27037;52.010;4.446;2023-09-30T09:21:17;18.80;99.90
41294;DHT22;27037;52.010;4.446;2023-09-30T09:23:43;18.90;99.90
41294;DHT22;27037;52.010;4.446;2023-09-30T09:26:10;19.00;99.90
41294;DHT22;27037;52.010;4.446;2023-09-30T09:28:37;19.10;99.90
41294;DHT22;27037;52.010;4.446;2023-09-30T09:31:39;19.20;99.90
41294;DHT22;27037;52.010;4.446;2023-09-30T09:34:13;19.30;99.90
41294;DHT22;27037;52.010;4.446;2023-09-30T09:36:44;19.40;99.90
41294;DHT22;27037;52.010;4.446;2023-09-30T09:39:11;19.40;99.90
41294;DHT22;27037;52.010;4.446;2023-09-30T09:41:49;19.50;99.90
41294;DHT22;27037;52.010;4.446;2023-09-30T09:44:17;19.60;99.90
41294;DHT22;27037;52.010;4.446;2023-09-30T09:46:45;19.70;99.90
41294;DHT22;27037;52.010;4.446;2023-09-30T09:49:12;19.80;99.90
41294;DHT22;27037;52.010;4.446;2023-09-30T09:51:38;20.00;99.90
41294;DHT22;27037;52.010;4.446;2023-09-30T09:54:04;20.20;99.90
41294;DHT22;27037;52.010;4.446;2023-09-30T09:56:33;20.40;99.90
41294;DHT22;27037;52.010;4.446;2023-09-30T09:59:01;20.40;99.90
41294;DHT22;27037;52.010;4.446;2023-09-30T10:01:30;20.50;99.90
41294;DHT22;27037;52.010;4.446;2023-09-30T10:03:56;20.60;99.90
41294;DHT22;27037;52.010;4.446;2023-09-30T10:06:22;20.70;99.90
41294;DHT22;27037;52.010;4.446;2023-09-30T10:08:49;20.80;99.90
41294;DHT22;27037;52.010;4.446;2023-09-30T10:11:20;20.90;99.90
41294;DHT22;27037;52.010;4.446;2023-09-30T10:13:58;20.90;99.90
41294;DHT22;27037;52.010;4.446;2023-09-30T10:19:22;21.00;99.90
41294;DHT22;27037;52.010;4.446;2023-09-30T10:24:42;21.10;99.90
41294;DHT22;27037;52.010;4.446;2023-09-30T10:35:43;21.40;99.90
41294;DHT22;27037;52.010;4.446;2023-09-30T10:40:50;21.50;99.90
41294;DHT22;27037;52.010;4.446;2023-09-30T10:43:33;21.60;99.90
41294;DHT22;27037;52.010;4.446;2023-09-30T10:46:01;21.60;99.90
41294;DHT22;27037;52.010;4.446;2023-09-30T10:51:10;21.50;99.90
41294;DHT22;27037;52.010;4.446;2023-09-30T10:53:45;21.50;99.90
41294;DHT22;27037;52.010;4.446;2023-09-30T10:56:11;21.40;99.90
41294;DHT22;27037;52.010;4.446;2023-09-30T10:58:50;21.40;99.90
41294;DHT22;27037;52.010;4.446;2023-09-30T11:01:21;21.30;99.90
41294;DHT22;27037;52.010;4.446;2023-09-30T11:03:47;21.40;99.90
41294;DHT22;27037;52.010;4.446;2023-09-30T11:06:17;21.40;99.90
41294;DHT22;27037;52.010;4.446;2023-09-30T11:08:55;21.50;99.90
41294;DHT22;27037;52.010;4.446;2023-09-30T11:11:41;21.60;99.90
41294;DHT22;27037;52.010;4.446;2023-09-30T11:14:23;21.50;99.90
41294;DHT22;27037;52.010;4.446;2023-09-30T11:16:51;21.40;99.90
41294;DHT22;27037;52.010;4.446;2023-09-30T11:19:18;21.40;99.90
41294;DHT22;27037;52.010;4.446;2023-09-30T11:21:51;21.40;99.90
41294;DHT22;27037;52.010;4.446;2023-09-30T11:24:18;21.30;99.90
41294;DHT22;27037;52.010;4.446;2023-09-30T11:26:45;21.30;99.90
41294;DHT22;27037;52.010;4.446;2023-09-30T11:29:12;21.20;99.90
41294;DHT22;27037;52.010;4.446;2023-09-30T11:31:46;21.20;99.90
41294;DHT22;27037;52.010;4.446;2023-09-30T11:34:15;21.20;99.90
41294;DHT22;27037;52.010;4.446;2023-09-30T11:36:48;21.20;99.90
41294;DHT22;27037;52.010;4.446;2023-09-30T11:39:26;21.20;99.90
41294;DHT22;27037;52.010;4.446;2023-09-30T11:41:52;21.20;99.90
41294;DHT22;27037;52.010;4.446;2023-09-30T11:44:18;21.20;99.90
41294;DHT22;27037;52.010;4.446;2023-09-30T11:47:01;21.30;99.90
41294;DHT22;27037;52.010;4.446;2023-09-30T11:49:33;21.30;99.90
41294;DHT22;27037;52.010;4.446;2023-09-30T11:52:11;21.30;99.90
41294;DHT22;27037;52.010;4.446;2023-09-30T11:54:38;21.30;99.90
41294;DHT22;27037;52.010;4.446;2023-09-30T11:57:07;21.30;99.90
41294;DHT22;27037;52.010;4.446;2023-09-30T11:59:37;21.30;99.90
41294;DHT22;27037;52.010;4.446;2023-09-30T12:02:03;21.40;99.90
41294;DHT22;27037;52.010;4.446;2023-09-30T12:04:31;21.40;99.90
41294;DHT22;27037;52.010;4.446;2023-09-30T12:06:57;21.40;99.90
41294;DHT22;27037;52.010;4.446;2023-09-30T12:09:23;21.50;99.90
41294;DHT22;27037;52.010;4.446;2023-09-30T12:11:51;21.40;99.90
41294;DHT22;27037;52.010;4.446;2023-09-30T12:14:17;21.40;99.90
41294;DHT22;27037;52.010;4.446;2023-09-30T12:16:43;21.40;99.90
41294;DHT22;27037;52.010;4.446;2023-09-30T12:19:13;21.40;99.90
41294;DHT22;27037;52.010;4.446;2023-09-30T12:21:40;21.30;99.90
41294;DHT22;27037;52.010;4.446;2023-09-30T12:24:06;21.30;99.90
41294;DHT22;27037;52.010;4.446;2023-09-30T12:26:33;21.20;99.90
41294;DHT22;27037;52.010;4.446;2023-09-30T12:28:59;21.20;99.90
41294;DHT22;27037;52.010;4.446;2023-09-30T12:31:25;21.10;99.90
41294;DHT22;27037;52.010;4.446;2023-09-30T12:33:51;21.00;99.90
41294;DHT22;27037;52.010;4.446;2023-09-30T12:36:18;21.00;99.90
41294;DHT22;27037;52.010;4.446;2023-09-30T12:38:44;21.00;99.90
41294;DHT22;27037;52.010;4.446;2023-09-30T12:41:10;21.10;99.90
41294;DHT22;27037;52.010;4.446;2023-09-30T12:43:36;21.10;99.90
41294;DHT22;27037;52.010;4.446;2023-09-30T12:46:02;21.00;99.90
41294;DHT22;27037;52.010;4.446;2023-09-30T12:48:29;21.00;99.90
41294;DHT22;27037;52.010;4.446;2023-09-30T12:50:55;21.00;99.90
41294;DHT22;27037;52.010;4.446;2023-09-30T12:53:21;21.00;99.90
41294;DHT22;27037;52.010;4.446;2023-09-30T12:55:47;20.90;99.90
41294;DHT22;27037;52.010;4.446;2023-09-30T12:58:13;20.90;99.90
41294;DHT22;27037;52.010;4.446;2023-09-30T13:00:38;20.90;99.90
41294;DHT22;27037;52.010;4.446;2023-09-30T13:03:04;20.90;99.90
41294;DHT22;27037;52.010;4.446;2023-09-30T13:05:31;20.90;99.90
41294;DHT22;27037;52.010;4.446;2023-09-30T13:07:57;20.90;99.90
41294;DHT22;27037;52.010;4.446;2023-09-30T13:10:23;20.90;99.90
41294;DHT22;27037;52.010;4.446;2023-09-30T13:12:49;20.90;99.90
41294;DHT22;27037;52.010;4.446;2023-09-30T13:15:16;20.90;99.90
41294;DHT22;27037;52.010;4.446;2023-09-30T13:17:45;21.00;99.90
41294;DHT22;27037;52.010;4.446;2023-09-30T13:20:11;20.90;99.90
41294;DHT22;27037;52.010;4.446;2023-09-30T13:22:38;20.90;99.90
41294;DHT22;27037;52.010;4.446;2023-09-30T13:25:05;20.90;99.90
41294;DHT22;27037;52.010;4.446;2023-09-30T13:27:31;21.00;99.90
41294;DHT22;27037;52.010;4.446;2023-09-30T13:29:58;21.00;99.90
41294;DHT22;27037;52.010;4.446;2023-09-30T13:32:24;21.00;99.90
41294;DHT22;27037;52.010;4.446;2023-09-30T13:34:51;21.00;99.90
41294;DHT22;27037;52.010;4.446;2023-09-30T13:37:17;21.00;99.90
41294;DHT22;27037;52.010;4.446;2023-09-30T13:39:42;20.90;99.90
41294;DHT22;27037;52.010;4.446;2023-09-30T13:42:08;20.90;99.90
41294;DHT22;27037;52.010;4.446;2023-09-30T13:44:34;20.90;99.90
41294;DHT22;27037;52.010;4.446;2023-09-30T13:47:01;20.90;99.90
41294;DHT22;27037;52.010;4.446;2023-09-30T13:49:28;20.90;99.90
41294;DHT22;27037;52.010;4.446;2023-09-30T13:51:55;20.90;99.90
41294;DHT22;27037;52.010;4.446;2023-09-30T13:54:21;20.90;99.90
41294;DHT22;27037;52.010;4.446;2023-09-30T13:56:47;20.90;99.90
41294;DHT22;27037;52.010;4.446;2023-09-30T13:59:13;20.90;99.90
41294;DHT22;27037;52.010;4.446;2023-09-30T14:01:39;20.90;99.90
41294;DHT22;27037;52.010;4.446;2023-09-30T14:04:07;21.00;99.90
41294;DHT22;27037;52.010;4.446;2023-09-30T14:06:32;21.00;99.90
41294;DHT22;27037;52.010;4.446;2023-09-30T14:08:58;21.10;99.90
41294;DHT22;27037;52.010;4.446;2023-09-30T14:11:24;21.10;99.90
41294;DHT22;27037;52.010;4.446;2023-09-30T14:13:49;21.10;99.90
41294;DHT22;27037;52.010;4.446;2023-09-30T14:16:15;21.20;99.90
41294;DHT22;27037;52.010;4.446;2023-09-30T14:18:41;21.10;99.90
41294;DHT22;27037;52.010;4.446;2023-09-30T14:21:08;21.10;99.90
41294;DHT22;27037;52.010;4.446;2023-09-30T14:23:33;21.10;99.90
41294;DHT22;27037;52.010;4.446;2023-09-30T14:25:59;21.10;99.90
41294;DHT22;27037;52.010;4.446;2023-09-30T14:28:26;21.10;99.90
41294;DHT22;27037;52.010;4.446;2023-09-30T14:30:51;20.90;99.90
41294;DHT22;27037;52.010;4.446;2023-09-30T14:33:17;20.90;99.90
41294;DHT22;27037;52.010;4.446;2023-09-30T14:35:45;20.90;99.90
41294;DHT22;27037;52.010;4.446;2023-09-30T14:38:10;20.90;99.90
41294;DHT22;27037;52.010;4.446;2023-09-30T14:40:40;20.80;99.90
41294;DHT22;27037;52.010;4.446;2023-09-30T14:43:07;20.80;99.90
41294;DHT22;27037;52.010;4.446;2023-09-30T14:45:37;20.70;99.90
41294;DHT22;27037;52.010;4.446;2023-09-30T14:48:08;20.80;99.90
41294;DHT22;27037;52.010;4.446;2023-09-30T14:50:35;20.70;99.90
41294;DHT22;27037;52.010;4.446;2023-09-30T14:53:02;20.70;99.90
41294;DHT22;27037;52.010;4.446;2023-09-30T14:55:28;20.70;99.90
41294;DHT22;27037;52.010;4.446;2023-09-30T14:57:55;20.70;99.90
41294;DHT22;27037;52.010;4.446;2023-09-30T15:00:21;20.60;99.90
41294;DHT22;27037;52.010;4.446;2023-09-30T15:02:50;20.50;99.90
41294;DHT22;27037;52.010;4.446;2023-09-30T15:05:15;20.50;99.90
41294;DHT22;27037;52.010;4.446;2023-09-30T15:07:42;20.40;99.90
41294;DHT22;27037;52.010;4.446;2023-09-30T15:10:08;20.30;99.90
41294;DHT22;27037;52.010;4.446;2023-09-30T15:12:34;20.20;99.90
41294;DHT22;27037;52.010;4.446;2023-09-30T15:15:00;20.20;99.90
41294;DHT22;27037;52.010;4.446;2023-09-30T15:17:26;20.10;99.90
41294;DHT22;27037;52.010;4.446;2023-09-30T15:19:52;20.10;99.90
41294;DHT22;27037;52.010;4.446;2023-09-30T15:22:18;20.10;99.90
41294;DHT22;27037;52.010;4.446;2023-09-30T15:24:43;20.10;99.90
41294;DHT22;27037;52.010;4.446;2023-09-30T15:27:09;20.10;99.90
41294;DHT22;27037;52.010;4.446;2023-09-30T15:29:35;20.10;99.90
41294;DHT22;27037;52.010;4.446;2023-09-30T15:32:02;20.00;99.90
41294;DHT22;27037;52.010;4.446;2023-09-30T15:34:28;20.10;99.90
41294;DHT22;27037;52.010;4.446;2023-09-30T15:36:53;20.00;99.90
41294;DHT22;27037;52.010;4.446;2023-09-30T15:39:19;20.10;99.90
41294;DHT22;27037;52.010;4.446;2023-09-30T15:41:45;20.00;99.90
41294;DHT22;27037;52.010;4.446;2023-09-30T15:44:10;19.90;99.90
41294;DHT22;27037;52.010;4.446;2023-09-30T15:46:36;19.80;99.90
41294;DHT22;27037;52.010;4.446;2023-09-30T15:49:02;19.80;99.90